Latest Weather Observations for Dennes Point

IDT60901

Issued at 6:01 pm EST Monday 25 September 2017 (issued every 10 minutes, with the page automatically refreshed every 10 minutes)

About weather observations | Map of Hobart area stations | Latest observations for Hobart area | Other Formats
Station Details ID: 094255 Name: DENNES POINT Lat: -43.06 Lon: 147.36 Height: 5.67 m
Data from the previous 72 hours. | See also: Recent months at Dennes Point
Date/Time
EST
Temp
°C
App
Temp
°C
Dew
Point
°C
Rel
Hum
%
Delta-T
°C
Wind Press
QNH
hPa
Press
MSL
hPa
Rain since
9am
mm
Dir  Spd
km/h
Gust
km/h
Spd
kts
Gust
kts
25/06:00pm 8.4 4.5 3.5 71 2.1 SW 13 19 7 10 1005.8 1005.8 2.0
25/05:30pm 8.8 4.2 3.8 71 2.2 WSW 17 22 9 12 1005.4 1005.4 2.0
25/05:00pm 8.8 4.4 2.8 66 2.6 SW 15 22 8 12 1004.8 1004.8 2.0
25/04:30pm 9.5 4.0 4.1 69 2.4 WSW 22 28 12 15 1004.1 1004.1 2.0
25/04:00pm 8.5 3.1 4.3 75 1.8 SW 22 33 12 18 1003.7 1003.7 2.0
25/03:30pm 8.0 3.4 5.5 84 1.1 SSW 19 26 10 14 1003.4 1003.4 1.8
25/03:00pm 8.9 5.0 6.9 87 0.9 SSW 17 26 9 14 1002.9 1002.9 1.4
25/02:30pm 9.2 5.0 5.9 80 1.5 SSW 17 24 9 13 1002.3 1002.3 0.4
25/02:00pm 9.8 5.7 6.2 78 1.7 SSW 17 26 9 14 1001.9 1002.0 0.4
25/01:30pm 10.9 6.8 8.0 82 1.4 SW 19 28 10 15 1001.2 1001.3 0.2
25/01:00pm 10.7 4.1 6.1 73 2.2 WSW 30 39 16 21 1000.6 1000.7 0.0
25/12:30pm 11.2 5.9 4.9 65 2.9 SW 22 33 12 18 1000.3 1000.3 0.0
25/12:00pm 10.9 6.3 6.6 75 2.0 SSW 20 30 11 16 999.9 999.9 0.0
25/11:30am 12.0 5.6 5.2 63 3.1 WSW 28 41 15 22 999.4 999.4 0.0
25/11:00am 11.9 4.7 4.9 62 3.2 WSW 32 39 17 21 998.9 998.9 0.0
25/10:30am 11.8 4.1 5.4 65 3.0 WSW 35 48 19 26 998.5 998.5 0.0
25/10:00am 11.2 3.9 4.4 63 3.1 WSW 32 43 17 23 998.1 998.1 0.0
25/09:30am 10.3 2.7 4.0 65 2.8 WSW 33 43 18 23 997.8 997.8 0.0
25/09:00am 10.4 1.7 3.9 64 2.9 W 39 50 21 27 997.3 997.3 0.0
25/08:30am 10.2 2.6 3.7 64 2.8 W 33 44 18 24 996.7 996.7 0.0
25/08:00am 9.6 1.8 2.7 62 3.0 W 33 44 18 24 996.2 996.2 0.0
25/07:30am 8.9 2.0 2.7 65 2.6 W 28 39 15 21 995.8 995.8 0.0
25/07:00am 8.5 0.6 2.1 64 2.7 W 33 46 18 25 995.0 995.0 0.0
25/06:51am 8.7 1.6 1.4 60 3.0 WNW 28 46 15 25 994.9 994.9 0.0
25/06:30am 8.2 1.8 1.1 61 2.9 W 24 35 13 19 994.7 994.7 0.0
25/06:00am 7.9 1.8 0.6 60 2.9 W 22 32 12 17 994.8 994.8 0.0
25/05:30am 7.8 1.4 1.2 63 2.7 W 24 39 13 21 994.5 994.5 0.0
25/05:00am 7.9 0.4 1.1 62 2.8 W 30 46 16 25 994.2 994.2 0.0
25/04:30am 7.9 0.4 1.3 63 2.7 WSW 30 43 16 23 994.0 994.0 0.0
25/04:00am 8.3 -0.2 0.8 59 3.0 WSW 35 48 19 26 993.1 993.1 0.0
25/03:30am 8.5 -0.2 1.9 63 2.7 W 37 57 20 31 992.4 992.4 0.0
25/03:13am 8.6 0.3 2.0 63 2.7 W 35 54 19 29 992.3 992.3 0.0
25/03:00am 8.7 0.1 2.5 65 2.6 WSW 37 46 20 25 992.0 992.0 0.0
25/02:41am 8.9 0.0 2.9 66 2.6 W 39 57 21 31 992.1 992.1 0.0
25/02:30am 8.9 0.3 2.7 65 2.6 W 37 50 20 27 992.2 992.2 0.0
25/02:00am 9.0 1.9 3.4 68 2.4 WSW 30 35 16 19 992.1 992.1 0.0
25/01:30am 9.1 2.8 3.5 68 2.4 WSW 26 32 14 17 991.9 991.9 0.0
25/01:00am 9.5 2.7 4.9 73 2.1 WSW 30 35 16 19 991.5 991.5 0.0
25/12:30am 9.9 5.1 5.7 75 1.9 WSW 20 28 11 15 991.2 991.2 0.0
25/12:00am 10.2 5.8 6.5 78 1.7 WSW 19 26 10 14 990.9 990.9 0.0
 
Date/Time
EST
Temp
°C
App
Temp
°C
Dew
Point
°C
Rel
Hum
%
Delta-T
°C
Wind Press
QNH
hPa
Press
MSL
hPa
Rain since
9am
mm
Dir  Spd
km/h
Gust
km/h
Spd
kts
Gust
kts
24/11:30pm 9.7 9.1 7.5 86 1.0 CALM 0 4 0 2 990.7 990.7 0.0
24/11:00pm 10.5 8.6 7.6 82 1.4 SSW 7 11 4 6 990.4 990.4 0.0
24/10:30pm 10.8 8.5 7.3 79 1.7 SSW 9 15 5 8 990.0 990.0 0.0
24/10:00pm 11.2 7.3 7.3 77 1.9 WSW 17 20 9 11 989.5 989.5 0.0
24/09:30pm 11.4 7.8 6.7 73 2.2 W 15 22 8 12 989.2 989.2 0.0
24/09:00pm 11.8 7.4 7.3 74 2.2 WSW 20 24 11 13 989.0 989.0 0.0
24/08:30pm 12.0 9.0 7.5 74 2.2 WSW 13 19 7 10 988.7 988.7 0.0
24/08:00pm 11.7 9.0 7.2 74 2.2 SW 11 17 6 9 988.3 988.3 0.0
24/07:30pm 12.2 9.1 7.3 72 2.4 SW 13 17 7 9 988.3 988.3 0.0
24/07:00pm 12.5 8.4 6.3 66 3.0 W 17 20 9 11 987.7 987.7 0.0
24/06:30pm 13.2 9.1 6.3 63 3.3 WNW 17 24 9 13 987.5 987.5 0.0
24/06:00pm 13.5 9.0 6.1 61 3.6 WNW 19 26 10 14 987.2 987.2 0.0
24/05:30pm 13.9 8.4 6.0 59 3.8 WNW 24 33 13 18 986.9 986.9 0.0
24/05:00pm 14.8 10.8 6.6 58 4.0 W 17 20 9 11 986.7 986.7 0.0
24/04:30pm 14.5 9.9 5.6 55 4.2 WNW 19 28 10 15 986.5 986.5 0.0
24/04:00pm 14.8 10.1 6.1 56 4.2 WNW 20 32 11 17 986.1 986.1 0.0
24/03:30pm 14.9 9.1 6.2 56 4.2 WNW 26 41 14 22 986.1 986.1 0.0
24/03:00pm 15.0 9.1 6.0 55 4.4 WNW 26 39 14 21 985.9 985.9 0.0
24/02:49pm 15.4 9.3 6.7 56 4.2 WNW 28 44 15 24 986.0 986.0 0.0
24/02:30pm 14.7 11.8 6.5 58 4.0 WSW 11 17 6 9 986.0 986.0 0.0
24/02:00pm 14.4 10.1 7.0 61 3.7 WSW 19 28 10 15 986.1 986.1 0.0
24/01:30pm 14.9 10.7 7.5 61 3.7 W 19 26 10 14 985.9 985.9 0.0
24/01:00pm 13.7 8.7 8.1 69 2.8 W 24 30 13 16 986.2 986.2 0.0
24/12:30pm 13.3 8.3 8.0 70 2.6 WSW 24 30 13 16 986.4 986.4 0.0
24/12:00pm 14.6 9.9 6.2 57 4.1 W 20 28 11 15 986.3 986.3 0.0
24/11:30am 15.4 9.4 6.9 57 4.2 W 28 41 15 22 986.4 986.4 0.0
24/11:00am 14.5 10.0 7.1 61 3.7 WNW 20 28 11 15 986.6 986.6 0.0
24/10:30am 14.9 10.6 7.0 59 3.9 NW 19 33 10 18 986.5 986.5 0.0
24/10:00am 13.5 9.6 7.3 66 3.1 N 17 22 9 12 986.6 986.6 0.0
24/09:30am 13.4 10.8 7.6 68 2.8 N 11 17 6 9 986.6 986.6 0.0
24/09:00am 13.1 11.7 7.3 68 2.9 NNW 4 9 2 5 986.8 986.8 7.4
24/08:30am 12.6 10.1 6.6 67 2.9 NNW 9 15 5 8 987.1 987.1 7.4
24/08:00am 13.2 9.6 6.8 65 3.1 NW 15 19 8 10 987.0 987.0 7.4
24/07:30am 13.0 10.4 5.9 62 3.3 WNW 9 17 5 9 986.7 986.7 7.4
24/07:00am 12.2 10.1 6.0 66 2.9 NW 6 7 3 4 986.8 986.8 7.4
24/06:30am 11.9 8.9 5.8 66 2.8 WNW 11 15 6 8 986.7 986.7 7.4
24/06:00am 12.2 9.0 5.1 62 3.3 NW 11 19 6 10 986.7 986.7 7.4
24/05:30am 12.1 10.3 5.3 63 3.1 NW 4 6 2 3 986.5 986.5 7.4
24/05:00am 12.0 8.9 5.6 65 3.0 W 11 15 6 8 986.3 986.3 7.4
24/04:30am 12.2 5.9 5.6 64 3.1 W 28 37 15 20 986.0 986.0 7.4
24/04:00am 12.5 7.0 6.1 65 3.1 W 24 41 13 22 985.5 985.5 7.4
24/03:30am 12.9 9.6 6.5 65 3.1 W 13 19 7 10 984.9 984.9 7.4
24/03:00am 13.1 9.1 6.7 65 3.1 W 17 30 9 16 984.4 984.4 7.4
24/02:30am 13.6 11.5 6.5 62 3.4 WNW 7 22 4 12 983.7 983.7 7.4
24/02:00am 12.9 8.6 7.1 68 2.8 N 19 28 10 15 983.4 983.4 7.4
24/01:30am 12.6 7.5 7.7 72 2.4 N 24 30 13 16 983.5 983.5 7.4
24/01:00am 12.7 8.0 7.8 72 2.4 N 22 28 12 15 983.9 983.9 7.4
24/12:30am 13.2 9.4 7.4 68 2.8 N 17 24 9 13 984.6 984.6 7.4
24/12:00am 13.1 10.0 7.3 68 2.9 NNW 13 20 7 11 984.9 984.9 7.4
 
Date/Time
EST
Temp
°C
App
Temp
°C
Dew
Point
°C
Rel
Hum
%
Delta-T
°C
Wind Press
QNH
hPa
Press
MSL
hPa
Rain since
9am
mm
Dir  Spd
km/h
Gust
km/h
Spd
kts
Gust
kts
23/11:30pm 13.3 11.3 7.3 67 2.9 NNW 7 13 4 7 984.9 984.9 7.4
23/11:00pm 13.2 9.8 7.6 69 2.8 NW 15 24 8 13 985.3 985.3 7.4
23/10:30pm 13.7 9.5 8.1 69 2.8 NW 20 24 11 13 985.6 985.6 7.4
23/10:00pm 12.3 11.6 11.4 94 0.5 NE 6 11 3 6 986.4 986.4 7.4
23/09:30pm 12.3 11.1 11.5 95 0.4 ENE 9 13 5 7 986.7 986.7 7.4
23/09:00pm 12.4 10.0 11.5 94 0.5 E 15 17 8 9 986.4 986.4 7.4
23/08:30pm 13.0 13.2 11.9 93 0.6 SW 2 6 1 3 987.9 987.9 7.2
23/08:00pm 13.2 13.4 11.8 91 0.8 WNW 2 6 1 3 988.2 988.2 4.2
23/07:30pm 13.7 13.7 11.2 85 1.3 NW 2 9 1 5 987.6 987.6 3.0
23/07:00pm 14.3 12.8 10.7 79 1.9 E 9 13 5 7 987.2 987.2 0.8
23/06:30pm 14.0 12.5 10.6 80 1.8 N 9 11 5 6 987.1 987.1 0.8
23/06:00pm 14.2 12.0 10.8 80 1.8 NNW 13 19 7 10 987.0 987.0 0.8
23/05:30pm 14.0 11.1 11.0 82 1.6 NNE 17 20 9 11 987.2 987.2 0.8
23/05:00pm 14.3 10.9 10.5 78 2.0 N 19 24 10 13 987.8 987.8 0.8
23/04:30pm 14.2 11.7 11.0 81 1.7 NNW 15 20 8 11 988.5 988.5 0.8
23/04:00pm 14.9 13.5 10.9 77 2.1 NNW 9 13 5 7 987.4 987.4 0.8
23/03:30pm 14.2 12.5 11.2 82 1.6 N 11 17 6 9 987.6 987.6 0.8
23/03:23pm 14.3 12.6 11.1 81 1.7 N 11 19 6 10 987.6 987.6 0.8
23/03:00pm 14.4 11.9 11.0 80 1.8 NNW 15 24 8 13 989.6 989.6 0.8
23/02:30pm 14.2 12.9 11.2 82 1.6 N 9 17 5 9 990.2 990.2 0.8
23/02:00pm 13.5 11.5 11.4 87 1.1 N 13 24 7 13 991.0 991.0 0.8
23/01:30pm 13.5 11.4 11.0 85 1.3 NNW 13 19 7 10 991.8 991.8 0.8
23/01:00pm 14.1 11.8 10.3 78 2.0 NNW 13 19 7 10 992.2 992.2 0.0
23/12:30pm 14.9 11.1 9.9 72 2.6 NNW 20 26 11 14 992.8 992.8 0.0
23/12:00pm 14.0 11.7 10.4 79 1.9 N 13 19 7 10 993.2 993.2 0.0
23/11:30am 14.1 10.3 9.9 76 2.2 N 20 28 11 15 993.6 993.6 0.0
23/11:00am 14.2 12.9 10.0 76 2.2 NNW 7 17 4 9 994.6 994.6 0.0
23/10:30am 15.9 13.0 9.8 67 3.2 N 15 24 8 13 995.1 995.1 0.0
23/10:00am 13.9 13.2 9.9 77 2.1 NNE 4 6 2 3 995.7 995.7 0.0
23/09:30am 12.7 11.5 9.7 82 1.5 NNE 6 11 3 6 996.4 996.4 0.0
23/09:00am 12.2 11.6 9.0 81 1.6 S 2 4 1 2 996.0 996.0 5.0
23/08:30am 11.6 10.2 9.5 87 1.1 ENE 7 9 4 5 995.9 995.9 5.0
23/08:00am 11.1 9.6 9.2 88 1.0 N 7 13 4 7 996.0 996.0 5.0
23/07:30am 11.2 8.9 9.1 87 1.0 NNE 11 17 6 9 996.3 996.3 5.0
23/07:00am 11.3 7.1 8.2 81 1.5 NNE 20 24 11 13 997.3 997.3 5.0
23/06:30am 10.9 7.0 8.7 86 1.1 NE 19 24 10 13 997.2 997.2 5.0
23/06:00am 11.3 8.4 8.2 81 1.5 NNW 13 19 7 10 998.3 998.3 1.4
23/05:30am 11.3 7.7 8.5 83 1.4 NE 17 22 9 12 997.3 997.3 1.4
23/05:00am 11.4 7.3 8.8 84 1.3 N 20 26 11 14 998.0 998.0 1.4
23/04:30am 11.9 8.6 9.6 86 1.2 N 17 20 9 11 998.4 998.4 1.4
23/04:00am 11.7 9.9 9.4 86 1.2 WNW 9 15 5 8 999.3 999.3 1.4
23/03:30am 11.3 9.2 9.7 90 0.8 NNE 11 17 6 9 998.9 998.9 1.2
23/03:00am 11.4 8.5 9.5 88 1.0 SW 15 30 8 16 1000.6 1000.7 0.6
23/02:30am 11.4 9.9 9.1 86 1.1 SSE 7 13 4 7 999.4 999.4 0.6
23/02:00am 11.6 9.4 9.2 85 1.2 E 11 17 6 9 1000.6 1000.7 0.0
23/01:30am 10.9 7.8 8.7 86 1.1 SSW 15 19 8 10 1001.8 1001.9 0.0
23/01:00am 10.7 10.4 8.6 87 1.0 CALM 0 6 0 3 1001.4 1001.5 0.0
23/12:30am 10.7 8.5 7.9 83 1.4 SSW 9 22 5 12 1001.8 1001.9 0.0
23/12:00am 12.2 9.1 9.0 81 1.6 ENE 15 24 8 13 1001.9 1002.0 0.0
 
Date/Time
EST
Temp
°C
App
Temp
°C
Dew
Point
°C
Rel
Hum
%
Delta-T
°C
Wind Press
QNH
hPa
Press
MSL
hPa
Rain since
9am
mm
Dir  Spd
km/h
Gust
km/h
Spd
kts
Gust
kts
22/11:30pm 11.1 10.4 8.7 85 1.2 ENE 2 6 1 3 1001.8 1001.9 0.0
22/11:00pm 10.8 9.5 7.5 80 1.6 S 4 6 2 3 1002.9 1002.9 0.0
22/10:30pm 10.8 9.1 7.5 80 1.6 SSW 6 6 3 3 1003.3 1003.3 0.0
22/10:00pm 10.5 8.7 7.0 79 1.7 SSW 6 6 3 3 1003.8 1003.8 0.0
22/09:30pm 11.5 10.1 7.2 75 2.1 E 4 6 2 3 1003.8 1003.8 0.0
22/09:00pm 12.1 11.1 7.2 72 2.4 E 2 6 1 3 1004.1 1004.1 0.0
22/08:30pm 12.3 10.6 7.6 73 2.3 E 6 7 3 4 1004.6 1004.6 0.0
22/08:00pm 12.8 11.0 7.0 68 2.8 ESE 6 13 3 7 1004.3 1004.3 0.0
22/07:30pm 12.5 9.3 8.4 76 2.0 NE 15 19 8 10 1004.7 1004.7 0.0
22/07:00pm 12.8 9.5 8.1 73 2.3 NE 15 20 8 11 1004.7 1004.7 0.0
22/06:30pm 12.9 9.9 7.8 71 2.5 E 13 17 7 9 1004.6 1004.6 0.0

Latest Capital City Observations: Canberra | Sydney | Melbourne | Brisbane | Adelaide | Perth | Hobart | Darwin

Other Formats:

Comma delimited format used in spreadsheet applications
http://www.bom.gov.au/fwo/IDT60901/IDT60901.94988.axf

JavaScript Object Notation format (JSON) in row-major order
http://www.bom.gov.au/fwo/IDT60901/IDT60901.94988.json